Cotes De La Manche — FQBE — position and weather

sailwx.info

Track history (hours):
 
Tides and Currents Weather Stations Pressure Air Temp Water Temp Dewpoint Dewpoint Depression Visibility Wind Speed Wind Dir Waves Ship Positions

Cotes De La Manche

Last reported at 2014-Sep-19 11:33 UTC. Time now 2014-Sep-19 11:54 UTC.
Position N 48°17' W 004°38'.

Length 25 m; draft 3.6 m.

Type: Other ship. MMSI: 227091000.

Date/timePositionNaut miles runAvg speedWind from/ knotsBaromVisibWave heightAir tempDewpointWater temp
2014-Sep-19 11:33N 48°17' W 004°38'2 1.8
2014-Sep-19 10:33N 48°17' W 004°36'0 0.0
2014-Sep-19 09:33N 48°17' W 004°36'4 4.4
2014-Sep-19 08:33N 48°19' W 004°42'1 1.1
2014-Sep-19 07:33N 48°18' W 004°41'6 6.0
2014-Sep-19 06:33N 48°12' W 004°39'9 9.1
2014-Sep-19 05:33N 48°07' W 004°27'5 5.4
2014-Sep-19 04:33N 48°06' W 004°20'0 0.0
2014-Sep-19 03:33N 48°06' W 004°20'0 0.0
2014-Sep-19 02:33N 48°06' W 004°20'0 0.0
2014-Sep-19 01:33N 48°06' W 004°20'0 0.0
2014-Sep-19 00:33N 48°06' W 004°20'0 0.0
2014-Sep-18 23:33N 48°06' W 004°20'0 0.0
2014-Sep-18 22:33N 48°06' W 004°20'0 0.0
2014-Sep-18 21:32N 48°06' W 004°20'0 0.0
2014-Sep-18 20:33N 48°06' W 004°20'0 0.0
2014-Sep-18 19:33N 48°06' W 004°20'0 0.0
2014-Sep-18 16:33N 48°06' W 004°20'4 3.9
2014-Sep-18 15:33N 48°08' W 004°25'5 5.4
2014-Sep-18 14:33N 48°08' W 004°33'3 2.9
2014-Sep-18 13:33N 48°08' W 004°29'3 3.0
2014-Sep-18 12:33N 48°11' W 004°28'7 3.0
2014-Sep-18 10:16N 48°06' W 004°36'2 2.7
2014-Sep-18 09:33N 48°05' W 004°38'3 2.9
2014-Sep-18 08:33N 48°07' W 004°35'4 3.8
2014-Sep-18 07:33N 48°10' W 004°31'4 3.6
2014-Sep-18 06:33N 48°13' W 004°28'0 0.3
2014-Sep-18 05:33N 48°14' W 004°28'0 0.0
2014-Sep-18 04:33N 48°14' W 004°28'0 0.0
2014-Sep-18 03:33N 48°14' W 004°28'0 0.0
2014-Sep-18 02:33N 48°14' W 004°28'0 0.0
2014-Sep-18 01:33N 48°14' W 004°28'0 0.0
2014-Sep-18 00:33N 48°14' W 004°28'0 0.0
2014-Sep-17 23:33N 48°14' W 004°28'0 0.0
2014-Sep-17 22:33N 48°14' W 004°28'0 0.0
2014-Sep-17 21:33N 48°14' W 004°28'7 7.4
2014-Sep-17 20:33N 48°08' W 004°35'1010.3
2014-Sep-17 19:33N 48°11' W 004°50'7 0.9
2014-Sep-17 12:20N 48°08' W 004°59'4 1.9
2014-Sep-17 10:06N 48°12' W 005°01'4 3.5
2014-Sep-17 09:03N 48°09' W 004°57'1 2.7
2014-Sep-17 08:33N 48°10' W 004°55'2 2.0
2014-Sep-17 07:33N 48°12' W 004°55'3 0.6
2014-Sep-17 02:33N 48°09' W 004°54'5 3.2
2014-Sep-17 01:04N 48°04' W 004°55'2 3.7
2014-Sep-17 00:33N 48°06' W 004°53'4 3.8
2014-Sep-16 23:33N 48°08' W 004°49'3 2.5
2014-Sep-16 22:33N 48°06' W 004°49'3 2.8
2014-Sep-16 21:33N 48°08' W 004°46'5 4.7
2014-Sep-16 20:33N 48°08' W 004°39'9 8.9
2014-Sep-16 19:33N 48°07' W 004°25'4 4.2
2014-Sep-16 18:33N 48°06' W 004°20'0 0.0
2014-Sep-16 17:33N 48°06' W 004°20'0 0.0
2014-Sep-16 16:32N 48°06' W 004°20'0 0.0
2014-Sep-16 15:32N 48°06' W 004°20'6 5.7
2014-Sep-16 14:33N 48°06' W 004°28'1010.1
2014-Sep-16 13:33N 48°04' W 004°43'4 4.2
2014-Sep-16 12:33N 48°00' W 004°45'2 0.1
2014-Sep-15 19:16N 48°02' W 004°46'3 3.3
2014-Sep-15 18:15N 48°04' W 004°50'0 0.5
2014-Sep-15 17:25N 48°05' W 004°49'1 1.4
2014-Sep-15 16:27N 48°03' W 004°48'1 1.2
2014-Sep-15 15:32N 48°04' W 004°47'1 1.3
2014-Sep-15 14:33N 48°03' W 004°47'3 2.3
2014-Sep-15 13:21N 47°60' W 004°48'3 3.4
2014-Sep-15 12:25N 48°03' W 004°46'1 1.4
2014-Sep-15 11:33N 48°04' W 004°45'1 0.5
2014-Sep-15 10:33N 48°04' W 004°45'1 0.9
2014-Sep-15 09:33N 48°03' W 004°43'3 3.4
2014-Sep-15 08:33N 48°07' W 004°43'1010.2
2014-Sep-15 07:33N 48°16' W 004°38'9 9.0
2014-Sep-15 06:33N 48°23' W 004°29'0 0.1
2014-Sep-15 05:33N 48°23' W 004°29'0 0.0
2014-Sep-15 04:33N 48°23' W 004°29'0 0.0
2014-Sep-15 03:33N 48°23' W 004°29'0 0.0
2014-Sep-15 02:33N 48°23' W 004°29'0 0.0
2014-Sep-15 01:33N 48°23' W 004°29'0 0.0
2014-Sep-15 00:33N 48°23' W 004°29'0 0.0
2014-Sep-14 23:33N 48°23' W 004°29'0 0.0
2014-Sep-14 22:33N 48°23' W 004°29'0 0.0
2014-Sep-14 21:33N 48°23' W 004°29'0 0.0
2014-Sep-14 20:33N 48°23' W 004°29'0 0.0
2014-Sep-14 19:33N 48°23' W 004°29'0 0.0
2014-Sep-14 18:33N 48°23' W 004°29'0 0.0
2014-Sep-14 17:33N 48°23' W 004°29'0 0.0
2014-Sep-14 16:33N 48°23' W 004°29'0 0.0
2014-Sep-14 15:33N 48°23' W 004°29'0 0.0
2014-Sep-14 14:33N 48°23' W 004°29'0 0.0
2014-Sep-14 13:33N 48°23' W 004°29'0 0.0
2014-Sep-14 12:33N 48°23' W 004°29'0 0.0
2014-Sep-14 11:33N 48°23' W 004°29'0 0.0
2014-Sep-14 10:33N 48°23' W 004°29'0 0.0
2014-Sep-14 09:33N 48°23' W 004°29'0 0.0
2014-Sep-14 08:33N 48°23' W 004°29'0 0.0
2014-Sep-14 07:33N 48°23' W 004°29'0 0.0
2014-Sep-14 06:33N 48°23' W 004°29'0 0.0
2014-Sep-14 05:33N 48°23' W 004°29'0 0.0
2014-Sep-14 04:33N 48°23' W 004°29'0 0.0
2014-Sep-14 03:33N 48°23' W 004°29'0 0.0
2014-Sep-14 02:33N 48°23' W 004°29'0 0.0
2014-Sep-14 01:33N 48°23' W 004°29'0 0.0
2014-Sep-13 21:33N 48°23' W 004°29'0 0.0
2014-Sep-13 20:33N 48°23' W 004°29'0 0.0
2014-Sep-13 19:33N 48°23' W 004°29'0 0.0
2014-Sep-13 18:33N 48°23' W 004°29'0 0.0
2014-Sep-13 17:33N 48°23' W 004°29'0 0.0
2014-Sep-13 16:33N 48°23' W 004°29'0 0.0
2014-Sep-13 15:33N 48°23' W 004°29'0 0.0
2014-Sep-13 14:33N 48°23' W 004°29'0 0.0
2014-Sep-13 13:33N 48°23' W 004°29'0 0.0
2014-Sep-13 12:33N 48°23' W 004°29'0 0.0
2014-Sep-13 11:33N 48°23' W 004°29'0 0.0
2014-Sep-13 10:33N 48°23' W 004°29'0 0.0
2014-Sep-13 09:33N 48°23' W 004°29'0 0.0
2014-Sep-13 08:33N 48°23' W 004°29'0 0.0
2014-Sep-13 07:33N 48°23' W 004°29'0 0.0
2014-Sep-13 06:33N 48°23' W 004°29'0 0.0
2014-Sep-13 05:33N 48°23' W 004°29'0 0.0
2014-Sep-13 04:33N 48°23' W 004°29'0 0.0
2014-Sep-13 03:33N 48°23' W 004°29'0 0.0
2014-Sep-13 02:33N 48°23' W 004°29'0 0.0
2014-Sep-13 01:33N 48°23' W 004°29'0 0.0
2014-Sep-13 00:33N 48°23' W 004°29'0 0.0
2014-Sep-12 23:33N 48°23' W 004°29'0 0.0
2014-Sep-12 22:33N 48°23' W 004°29'0 0.0
2014-Sep-12 21:33N 48°23' W 004°29'0 0.0
2014-Sep-12 20:33N 48°23' W 004°29'0 0.0
2014-Sep-12 19:33N 48°23' W 004°29'0 0.0
2014-Sep-12 18:33N 48°23' W 004°29'0 0.0
2014-Sep-12 17:33N 48°23' W 004°29'0 0.0
2014-Sep-12 16:33N 48°23' W 004°29'0 0.0
2014-Sep-12 15:33N 48°23' W 004°29'0 0.0
2014-Sep-12 14:33N 48°23' W 004°29'0 0.0
2014-Sep-12 13:33N 48°23' W 004°29'0 0.0
2014-Sep-12 12:33N 48°23' W 004°29'5 4.7
2014-Sep-12 11:33N 48°19' W 004°25'0 0.0
2014-Sep-12 10:33N 48°19' W 004°25'0 0.0
2014-Sep-12 09:33N 48°19' W 004°25'0 0.0
2014-Sep-12 08:33N 48°19' W 004°25'2 2.5
2014-Sep-12 07:33N 48°20' W 004°29'3 3.1
2014-Sep-12 06:33N 48°23' W 004°29'0 0.0
2014-Sep-12 05:33N 48°23' W 004°29'0 0.0
2014-Sep-12 04:33N 48°23' W 004°29'0 0.0
2014-Sep-12 03:33N 48°23' W 004°29'0 0.0
2014-Sep-12 02:33N 48°23' W 004°29'0 0.0
2014-Sep-12 01:33N 48°23' W 004°29'0 0.0
2014-Sep-12 00:33N 48°23' W 004°29'0 0.0
2014-Sep-11 23:33N 48°23' W 004°29'0 0.0
2014-Sep-11 22:33N 48°23' W 004°29'0 0.0
2014-Sep-11 21:33N 48°23' W 004°29'0 0.0
2014-Sep-11 20:31N 48°23' W 004°29'0 0.0
2014-Sep-11 19:33N 48°23' W 004°29'0 0.0
2014-Sep-11 18:33N 48°23' W 004°29'0 0.0
2014-Sep-11 17:33N 48°23' W 004°29'0 0.0
2014-Sep-11 16:33N 48°23' W 004°29'0 0.0
2014-Sep-11 15:33N 48°23' W 004°29'0 0.0
2014-Sep-11 14:33N 48°23' W 004°29'0 0.0
2014-Sep-11 13:33N 48°23' W 004°29'0 0.0
2014-Sep-11 12:33N 48°23' W 004°29'0 0.0
2014-Sep-11 11:33N 48°23' W 004°29'0 0.0
2014-Sep-11 10:33N 48°23' W 004°29'0 0.0
2014-Sep-11 09:33N 48°23' W 004°29'0 0.0
2014-Sep-11 08:33N 48°23' W 004°29'0 0.0
2014-Sep-11 07:33N 48°23' W 004°29'0 0.0
2014-Sep-11 06:33N 48°23' W 004°29'0 0.0
2014-Sep-11 05:33N 48°23' W 004°29'0 0.0
2014-Sep-11 04:33N 48°23' W 004°29'0 0.0
2014-Sep-11 03:33N 48°23' W 004°29'0 0.0
2014-Sep-11 02:33N 48°23' W 004°29'0 0.0
2014-Sep-11 01:33N 48°23' W 004°29'0 0.0
2014-Sep-11 00:33N 48°23' W 004°29'0 0.0
2014-Sep-10 23:33N 48°23' W 004°29'0 0.0
2014-Sep-10 22:33N 48°23' W 004°29'0 0.0
2014-Sep-10 21:33N 48°23' W 004°29'0 0.0
2014-Sep-10 20:33N 48°23' W 004°29'0 0.0
2014-Sep-10 19:33N 48°23' W 004°29'0 0.0
2014-Sep-10 18:33N 48°23' W 004°29'0 0.0
2014-Sep-10 17:33N 48°23' W 004°29'0 0.0
2014-Sep-10 16:33N 48°23' W 004°29'0 0.0
2014-Sep-10 15:33N 48°23' W 004°29'0 0.0
2014-Sep-10 14:33N 48°23' W 004°29'0 0.0
2014-Sep-10 13:33N 48°23' W 004°29'0 0.0
2014-Sep-10 12:33N 48°23' W 004°29'0 0.0
2014-Sep-10 11:33N 48°23' W 004°29'0 0.0
2014-Sep-10 10:33N 48°23' W 004°29'0 0.0
2014-Sep-10 09:33N 48°23' W 004°29'0 0.1
2014-Sep-10 08:33N 48°23' W 004°29'8 8.1
2014-Sep-10 07:33N 48°18' W 004°39'8 7.9
2014-Sep-10 06:33N 48°11' W 004°45'9 7.8
2014-Sep-10 05:22N 48°02' W 004°46'  
Track history (hours):
 
Tides and Currents Weather Stations Pressure Air Temp Water Temp Dewpoint Dewpoint Depression Visibility Wind Speed Wind Dir Waves Ship Positions

Cotes De La Manche

Last reported at 2014-Sep-19 11:33 UTC. Time now 2014-Sep-19 11:54 UTC.
Position N 48°17' W 004°38'.

Length 25 m; draft 3.6 m.

Type: Other ship. MMSI: 227091000.

Date/timePositionNaut miles runAvg speedWind from/ knotsBaromVisibWave heightAir tempDewpointWater temp
2014-Sep-19 11:33N 48°17' W 004°38'2 1.8
2014-Sep-19 10:33N 48°17' W 004°36'0 0.0
2014-Sep-19 09:33N 48°17' W 004°36'4 4.4
2014-Sep-19 08:33N 48°19' W 004°42'1 1.1
2014-Sep-19 07:33N 48°18' W 004°41'6 6.0
2014-Sep-19 06:33N 48°12' W 004°39'9 9.1
2014-Sep-19 05:33N 48°07' W 004°27'5 5.4
2014-Sep-19 04:33N 48°06' W 004°20'0 0.0
2014-Sep-19 03:33N 48°06' W 004°20'0 0.0
2014-Sep-19 02:33N 48°06' W 004°20'0 0.0
2014-Sep-19 01:33N 48°06' W 004°20'0 0.0
2014-Sep-19 00:33N 48°06' W 004°20'0 0.0
2014-Sep-18 23:33N 48°06' W 004°20'0 0.0
2014-Sep-18 22:33N 48°06' W 004°20'0 0.0
2014-Sep-18 21:32N 48°06' W 004°20'0 0.0
2014-Sep-18 20:33N 48°06' W 004°20'0 0.0
2014-Sep-18 19:33N 48°06' W 004°20'0 0.0
2014-Sep-18 16:33N 48°06' W 004°20'4 3.9
2014-Sep-18 15:33N 48°08' W 004°25'5 5.4
2014-Sep-18 14:33N 48°08' W 004°33'3 2.9
2014-Sep-18 13:33N 48°08' W 004°29'3 3.0
2014-Sep-18 12:33N 48°11' W 004°28'7 3.0
2014-Sep-18 10:16N 48°06' W 004°36'2 2.7
2014-Sep-18 09:33N 48°05' W 004°38'3 2.9
2014-Sep-18 08:33N 48°07' W 004°35'4 3.8
2014-Sep-18 07:33N 48°10' W 004°31'4 3.6
2014-Sep-18 06:33N 48°13' W 004°28'0 0.3
2014-Sep-18 05:33N 48°14' W 004°28'0 0.0
2014-Sep-18 04:33N 48°14' W 004°28'0 0.0
2014-Sep-18 03:33N 48°14' W 004°28'0 0.0
2014-Sep-18 02:33N 48°14' W 004°28'0 0.0
2014-Sep-18 01:33N 48°14' W 004°28'0 0.0
2014-Sep-18 00:33N 48°14' W 004°28'0 0.0
2014-Sep-17 23:33N 48°14' W 004°28'0 0.0
2014-Sep-17 22:33N 48°14' W 004°28'0 0.0
2014-Sep-17 21:33N 48°14' W 004°28'7 7.4
2014-Sep-17 20:33N 48°08' W 004°35'1010.3
2014-Sep-17 19:33N 48°11' W 004°50'7 0.9
2014-Sep-17 12:20N 48°08' W 004°59'4 1.9
2014-Sep-17 10:06N 48°12' W 005°01'4 3.5
2014-Sep-17 09:03N 48°09' W 004°57'1 2.7
2014-Sep-17 08:33N 48°10' W 004°55'2 2.0
2014-Sep-17 07:33N 48°12' W 004°55'3 0.6
2014-Sep-17 02:33N 48°09' W 004°54'5 3.2
2014-Sep-17 01:04N 48°04' W 004°55'2 3.7
2014-Sep-17 00:33N 48°06' W 004°53'4 3.8
2014-Sep-16 23:33N 48°08' W 004°49'3 2.5
2014-Sep-16 22:33N 48°06' W 004°49'3 2.8
2014-Sep-16 21:33N 48°08' W 004°46'5 4.7
2014-Sep-16 20:33N 48°08' W 004°39'9 8.9
2014-Sep-16 19:33N 48°07' W 004°25'4 4.2
2014-Sep-16 18:33N 48°06' W 004°20'0 0.0
2014-Sep-16 17:33N 48°06' W 004°20'0 0.0
2014-Sep-16 16:32N 48°06' W 004°20'0 0.0
2014-Sep-16 15:32N 48°06' W 004°20'6 5.7
2014-Sep-16 14:33N 48°06' W 004°28'1010.1
2014-Sep-16 13:33N 48°04' W 004°43'4 4.2
2014-Sep-16 12:33N 48°00' W 004°45'2 0.1
2014-Sep-15 19:16N 48°02' W 004°46'3 3.3
2014-Sep-15 18:15N 48°04' W 004°50'0 0.5
2014-Sep-15 17:25N 48°05' W 004°49'1 1.4
2014-Sep-15 16:27N 48°03' W 004°48'1 1.2
2014-Sep-15 15:32N 48°04' W 004°47'1 1.3
2014-Sep-15 14:33N 48°03' W 004°47'3 2.3
2014-Sep-15 13:21N 47°60' W 004°48'3 3.4
2014-Sep-15 12:25N 48°03' W 004°46'1 1.4
2014-Sep-15 11:33N 48°04' W 004°45'1 0.5
2014-Sep-15 10:33N 48°04' W 004°45'1 0.9
2014-Sep-15 09:33N 48°03' W 004°43'3 3.4
2014-Sep-15 08:33N 48°07' W 004°43'1010.2
2014-Sep-15 07:33N 48°16' W 004°38'9 9.0
2014-Sep-15 06:33N 48°23' W 004°29'0 0.1
2014-Sep-15 05:33N 48°23' W 004°29'0 0.0
2014-Sep-15 04:33N 48°23' W 004°29'0 0.0
2014-Sep-15 03:33N 48°23' W 004°29'0 0.0
2014-Sep-15 02:33N 48°23' W 004°29'0 0.0
2014-Sep-15 01:33N 48°23' W 004°29'0 0.0
2014-Sep-15 00:33N 48°23' W 004°29'0 0.0
2014-Sep-14 23:33N 48°23' W 004°29'0 0.0
2014-Sep-14 22:33N 48°23' W 004°29'0 0.0
2014-Sep-14 21:33N 48°23' W 004°29'0 0.0
2014-Sep-14 20:33N 48°23' W 004°29'0 0.0
2014-Sep-14 19:33N 48°23' W 004°29'0 0.0
2014-Sep-14 18:33N 48°23' W 004°29'0 0.0
2014-Sep-14 17:33N 48°23' W 004°29'0 0.0
2014-Sep-14 16:33N 48°23' W 004°29'0 0.0
2014-Sep-14 15:33N 48°23' W 004°29'0 0.0
2014-Sep-14 14:33N 48°23' W 004°29'0 0.0
2014-Sep-14 13:33N 48°23' W 004°29'0 0.0
2014-Sep-14 12:33N 48°23' W 004°29'0 0.0
2014-Sep-14 11:33N 48°23' W 004°29'0 0.0
2014-Sep-14 10:33N 48°23' W 004°29'0 0.0
2014-Sep-14 09:33N 48°23' W 004°29'0 0.0
2014-Sep-14 08:33N 48°23' W 004°29'0 0.0
2014-Sep-14 07:33N 48°23' W 004°29'0 0.0
2014-Sep-14 06:33N 48°23' W 004°29'0 0.0
2014-Sep-14 05:33N 48°23' W 004°29'0 0.0
2014-Sep-14 04:33N 48°23' W 004°29'0 0.0
2014-Sep-14 03:33N 48°23' W 004°29'0 0.0
2014-Sep-14 02:33N 48°23' W 004°29'0 0.0
2014-Sep-14 01:33N 48°23' W 004°29'0 0.0
2014-Sep-13 21:33N 48°23' W 004°29'0 0.0
2014-Sep-13 20:33N 48°23' W 004°29'0 0.0
2014-Sep-13 19:33N 48°23' W 004°29'0 0.0
2014-Sep-13 18:33N 48°23' W 004°29'0 0.0
2014-Sep-13 17:33N 48°23' W 004°29'0 0.0
2014-Sep-13 16:33N 48°23' W 004°29'0 0.0
2014-Sep-13 15:33N 48°23' W 004°29'0 0.0
2014-Sep-13 14:33N 48°23' W 004°29'0 0.0
2014-Sep-13 13:33N 48°23' W 004°29'0 0.0
2014-Sep-13 12:33N 48°23' W 004°29'0 0.0
2014-Sep-13 11:33N 48°23' W 004°29'0 0.0
2014-Sep-13 10:33N 48°23' W 004°29'0 0.0
2014-Sep-13 09:33N 48°23' W 004°29'0 0.0
2014-Sep-13 08:33N 48°23' W 004°29'0 0.0
2014-Sep-13 07:33N 48°23' W 004°29'0 0.0
2014-Sep-13 06:33N 48°23' W 004°29'0 0.0
2014-Sep-13 05:33N 48°23' W 004°29'0 0.0
2014-Sep-13 04:33N 48°23' W 004°29'0 0.0
2014-Sep-13 03:33N 48°23' W 004°29'0 0.0
2014-Sep-13 02:33N 48°23' W 004°29'0 0.0
2014-Sep-13 01:33N 48°23' W 004°29'0 0.0
2014-Sep-13 00:33N 48°23' W 004°29'0 0.0
2014-Sep-12 23:33N 48°23' W 004°29'0 0.0
2014-Sep-12 22:33N 48°23' W 004°29'0 0.0
2014-Sep-12 21:33N 48°23' W 004°29'0 0.0
2014-Sep-12 20:33N 48°23' W 004°29'0 0.0
2014-Sep-12 19:33N 48°23' W 004°29'0 0.0
2014-Sep-12 18:33N 48°23' W 004°29'0 0.0
2014-Sep-12 17:33N 48°23' W 004°29'0 0.0
2014-Sep-12 16:33N 48°23' W 004°29'0 0.0
2014-Sep-12 15:33N 48°23' W 004°29'0 0.0
2014-Sep-12 14:33N 48°23' W 004°29'0 0.0
2014-Sep-12 13:33N 48°23' W 004°29'0 0.0
2014-Sep-12 12:33N 48°23' W 004°29'5 4.7
2014-Sep-12 11:33N 48°19' W 004°25'0 0.0
2014-Sep-12 10:33N 48°19' W 004°25'0 0.0
2014-Sep-12 09:33N 48°19' W 004°25'0 0.0
2014-Sep-12 08:33N 48°19' W 004°25'2 2.5
2014-Sep-12 07:33N 48°20' W 004°29'3 3.1
2014-Sep-12 06:33N 48°23' W 004°29'0 0.0
2014-Sep-12 05:33N 48°23' W 004°29'0 0.0
2014-Sep-12 04:33N 48°23' W 004°29'0 0.0
2014-Sep-12 03:33N 48°23' W 004°29'0 0.0
2014-Sep-12 02:33N 48°23' W 004°29'0 0.0
2014-Sep-12 01:33N 48°23' W 004°29'0 0.0
2014-Sep-12 00:33N 48°23' W 004°29'0 0.0
2014-Sep-11 23:33N 48°23' W 004°29'0 0.0
2014-Sep-11 22:33N 48°23' W 004°29'0 0.0
2014-Sep-11 21:33N 48°23' W 004°29'0 0.0
2014-Sep-11 20:31N 48°23' W 004°29'0 0.0
2014-Sep-11 19:33N 48°23' W 004°29'0 0.0
2014-Sep-11 18:33N 48°23' W 004°29'0 0.0
2014-Sep-11 17:33N 48°23' W 004°29'0 0.0
2014-Sep-11 16:33N 48°23' W 004°29'0 0.0
2014-Sep-11 15:33N 48°23' W 004°29'0 0.0
2014-Sep-11 14:33N 48°23' W 004°29'0 0.0
2014-Sep-11 13:33N 48°23' W 004°29'0 0.0
2014-Sep-11 12:33N 48°23' W 004°29'0 0.0
2014-Sep-11 11:33N 48°23' W 004°29'0 0.0
2014-Sep-11 10:33N 48°23' W 004°29'0 0.0
2014-Sep-11 09:33N 48°23' W 004°29'0 0.0
2014-Sep-11 08:33N 48°23' W 004°29'0 0.0
2014-Sep-11 07:33N 48°23' W 004°29'0 0.0
2014-Sep-11 06:33N 48°23' W 004°29'0 0.0
2014-Sep-11 05:33N 48°23' W 004°29'0 0.0
2014-Sep-11 04:33N 48°23' W 004°29'0 0.0
2014-Sep-11 03:33N 48°23' W 004°29'0 0.0
2014-Sep-11 02:33N 48°23' W 004°29'0 0.0
2014-Sep-11 01:33N 48°23' W 004°29'0 0.0
2014-Sep-11 00:33N 48°23' W 004°29'0 0.0
2014-Sep-10 23:33N 48°23' W 004°29'0 0.0
2014-Sep-10 22:33N 48°23' W 004°29'0 0.0
2014-Sep-10 21:33N 48°23' W 004°29'0 0.0
2014-Sep-10 20:33N 48°23' W 004°29'0 0.0
2014-Sep-10 19:33N 48°23' W 004°29'0 0.0
2014-Sep-10 18:33N 48°23' W 004°29'0 0.0
2014-Sep-10 17:33N 48°23' W 004°29'0 0.0
2014-Sep-10 16:33N 48°23' W 004°29'0 0.0
2014-Sep-10 15:33N 48°23' W 004°29'0 0.0
2014-Sep-10 14:33N 48°23' W 004°29'0 0.0
2014-Sep-10 13:33N 48°23' W 004°29'0 0.0
2014-Sep-10 12:33N 48°23' W 004°29'0 0.0
2014-Sep-10 11:33N 48°23' W 004°29'0 0.0
2014-Sep-10 10:33N 48°23' W 004°29'0 0.0
2014-Sep-10 09:33N 48°23' W 004°29'0 0.1
2014-Sep-10 08:33N 48°23' W 004°29'8 8.1
2014-Sep-10 07:33N 48°18' W 004°39'8 7.9
2014-Sep-10 06:33N 48°11' W 004°45'9 7.8
2014-Sep-10 05:22N 48°02' W 004°46'  

Dump ship's entire track history